Hermitage, Arkansas
Current Conditions -  °F | °C
As of 9:53 PM on Monday 22 Dec 2014 (Local Time) from KLLQ Reporting Station
Few Clouds Few Clouds  
Wind Chill: 58°   Ceiling: Unl
Heat Index: 58°   Visibility: 8mi
Dew Point: 56°   Wind: 5mph
Humidity: 93%   Direction: 190°S
Pressure: 29.65"   Gusts: NA
Location:  33.45°N, 92.17°W
Report Text: KLLQ 230353Z AUTO 19004KT 8SM FEW065 14/13 A2965 RMK AO2 SLP039 T01440133
Loading
Personal Weather Stations






























Interactive Weather Map New forecast layout! Learn more

10-Day Weather Forecast

Advertisements
Track Severe Weather on mobile